sensor_id;sensor_type;location;lat;lon;timestamp;pressure;altitude;pressure_sealevel;temperature;humidity
76605;BME280;73179;50.978;16.998;2024-02-26T00:01:59;99108.19;;;2.06;91.07
76605;BME280;73179;50.978;16.998;2024-02-26T00:04:25;99083.50;;;1.89;91.55
76605;BME280;73179;50.978;16.998;2024-02-26T00:06:51;99074.72;;;1.62;93.35
76605;BME280;73179;50.978;16.998;2024-02-26T00:09:19;99101.94;;;1.64;93.82
76605;BME280;73179;50.978;16.998;2024-02-26T00:11:45;99097.34;;;1.59;94.02
76605;BME280;73179;50.978;16.998;2024-02-26T00:14:11;99094.78;;;1.69;93.86
76605;BME280;73179;50.978;16.998;2024-02-26T00:16:41;99092.25;;;1.84;92.41
76605;BME280;73179;50.978;16.998;2024-02-26T00:19:07;99100.44;;;1.78;93.49
76605;BME280;73179;50.978;16.998;2024-02-26T00:21:34;99110.22;;;1.94;93.29
76605;BME280;73179;50.978;16.998;2024-02-26T00:23:59;99090.19;;;1.91;92.11
76605;BME280;73179;50.978;16.998;2024-02-26T00:26:26;99093.84;;;2.12;91.56
76605;BME280;73179;50.978;16.998;2024-02-26T00:28:51;99103.59;;;2.33;90.61
76605;BME280;73179;50.978;16.998;2024-02-26T00:31:18;99084.84;;;2.28;90.01
76605;BME280;73179;50.978;16.998;2024-02-26T00:33:44;99085.38;;;1.93;89.06
76605;BME280;73179;50.978;16.998;2024-02-26T00:36:10;99086.56;;;1.76;92.40
76605;BME280;73179;50.978;16.998;2024-02-26T00:38:36;99077.00;;;1.80;93.35
76605;BME280;73179;50.978;16.998;2024-02-26T00:41:02;99107.88;;;1.71;93.62
76605;BME280;73179;50.978;16.998;2024-02-26T00:43:28;99081.03;;;1.51;94.50
76605;BME280;73179;50.978;16.998;2024-02-26T00:45:55;99073.03;;;1.51;94.47
76605;BME280;73179;50.978;16.998;2024-02-26T00:48:21;99099.69;;;1.51;94.66
76605;BME280;73179;50.978;16.998;2024-02-26T00:50:47;99090.50;;;1.15;95.04
76605;BME280;73179;50.978;16.998;2024-02-26T00:53:13;99087.44;;;1.06;95.78
76605;BME280;73179;50.978;16.998;2024-02-26T00:55:39;99087.69;;;1.26;96.30
76605;BME280;73179;50.978;16.998;2024-02-26T00:58:05;99070.53;;;1.44;96.47
76605;BME280;73179;50.978;16.998;2024-02-26T01:00:32;99058.44;;;1.63;95.46
76605;BME280;73179;50.978;16.998;2024-02-26T01:02:58;99078.69;;;1.91;93.89
76605;BME280;73179;50.978;16.998;2024-02-26T01:05:25;99071.91;;;1.78;94.15
76605;BME280;73179;50.978;16.998;2024-02-26T01:07:51;99091.06;;;2.02;93.20
76605;BME280;73179;50.978;16.998;2024-02-26T01:10:17;99075.88;;;1.44;93.25
76605;BME280;73179;50.978;16.998;2024-02-26T01:12:43;99079.25;;;1.61;94.15
76605;BME280;73179;50.978;16.998;2024-02-26T01:15:09;99077.56;;;1.55;94.02
76605;BME280;73179;50.978;16.998;2024-02-26T01:17:35;99065.69;;;1.68;94.30
76605;BME280;73179;50.978;16.998;2024-02-26T01:20:02;99082.63;;;1.83;94.31
76605;BME280;73179;50.978;16.998;2024-02-26T01:22:28;99046.63;;;1.81;94.00
76605;BME280;73179;50.978;16.998;2024-02-26T01:24:54;99082.53;;;2.00;93.99
76605;BME280;73179;50.978;16.998;2024-02-26T01:27:20;99073.00;;;1.77;93.31
76605;BME280;73179;50.978;16.998;2024-02-26T01:29:47;99079.31;;;1.71;94.58
76605;BME280;73179;50.978;16.998;2024-02-26T01:32:12;99046.59;;;1.49;94.00
76605;BME280;73179;50.978;16.998;2024-02-26T01:34:39;99031.69;;;1.53;94.47
76605;BME280;73179;50.978;16.998;2024-02-26T01:37:05;99060.38;;;1.41;94.09
76605;BME280;73179;50.978;16.998;2024-02-26T01:39:31;99050.16;;;1.06;94.98
76605;BME280;73179;50.978;16.998;2024-02-26T01:41:57;99053.69;;;0.90;95.72
76605;BME280;73179;50.978;16.998;2024-02-26T01:44:23;99064.91;;;0.92;96.42
76605;BME280;73179;50.978;16.998;2024-02-26T01:46:49;99055.00;;;0.87;97.11
76605;BME280;73179;50.978;16.998;2024-02-26T01:49:15;99051.94;;;1.01;97.12
76605;BME280;73179;50.978;16.998;2024-02-26T01:51:43;99071.19;;;1.29;97.39
76605;BME280;73179;50.978;16.998;2024-02-26T01:54:10;99063.63;;;1.21;97.01
76605;BME280;73179;50.978;16.998;2024-02-26T01:56:37;99073.31;;;1.27;96.84
76605;BME280;73179;50.978;16.998;2024-02-26T01:59:08;99050.38;;;1.26;96.32
76605;BME280;73179;50.978;16.998;2024-02-26T02:01:35;99059.13;;;1.49;96.38
76605;BME280;73179;50.978;16.998;2024-02-26T02:04:02;99026.19;;;1.33;95.70
76605;BME280;73179;50.978;16.998;2024-02-26T02:06:28;99043.16;;;1.00;96.09
76605;BME280;73179;50.978;16.998;2024-02-26T02:08:55;99068.59;;;1.13;96.95
76605;BME280;73179;50.978;16.998;2024-02-26T02:11:21;99071.25;;;1.34;97.44
76605;BME280;73179;50.978;16.998;2024-02-26T02:13:48;99043.50;;;1.35;97.63
76605;BME280;73179;50.978;16.998;2024-02-26T02:16:14;99058.09;;;1.55;97.01
76605;BME280;73179;50.978;16.998;2024-02-26T02:18:41;99056.38;;;1.70;96.62
76605;BME280;73179;50.978;16.998;2024-02-26T02:21:07;99045.69;;;1.70;96.37
76605;BME280;73179;50.978;16.998;2024-02-26T02:23:33;99051.94;;;1.81;96.66
76605;BME280;73179;50.978;16.998;2024-02-26T02:25:59;99043.31;;;1.69;95.56
76605;BME280;73179;50.978;16.998;2024-02-26T02:28:26;99036.41;;;1.73;95.26
76605;BME280;73179;50.978;16.998;2024-02-26T02:30:53;99055.72;;;1.85;93.83
76605;BME280;73179;50.978;16.998;2024-02-26T02:33:21;99033.44;;;1.69;93.91
76605;BME280;73179;50.978;16.998;2024-02-26T02:35:48;99028.31;;;1.63;92.77
76605;BME280;73179;50.978;16.998;2024-02-26T02:38:16;99056.44;;;1.75;93.42
76605;BME280;73179;50.978;16.998;2024-02-26T02:40:42;99048.13;;;1.72;94.71
76605;BME280;73179;50.978;16.998;2024-02-26T02:43:09;99051.56;;;1.67;94.34
76605;BME280;73179;50.978;16.998;2024-02-26T02:45:34;99042.97;;;1.60;93.71
76605;BME280;73179;50.978;16.998;2024-02-26T02:48:01;99033.84;;;1.56;93.60
76605;BME280;73179;50.978;16.998;2024-02-26T02:50:26;99027.88;;;1.44;94.58
76605;BME280;73179;50.978;16.998;2024-02-26T02:52:54;99038.00;;;1.42;95.93
76605;BME280;73179;50.978;16.998;2024-02-26T02:55:21;99062.25;;;1.40;96.37
76605;BME280;73179;50.978;16.998;2024-02-26T02:57:47;99018.69;;;1.03;95.84
76605;BME280;73179;50.978;16.998;2024-02-26T03:00:13;99048.69;;;0.72;96.23
76605;BME280;73179;50.978;16.998;2024-02-26T03:02:39;99043.16;;;0.78;97.22
76605;BME280;73179;50.978;16.998;2024-02-26T03:05:05;99038.72;;;0.84;98.25
76605;BME280;73179;50.978;16.998;2024-02-26T03:07:32;99029.34;;;0.81;98.90
76605;BME280;73179;50.978;16.998;2024-02-26T03:09:58;99042.75;;;1.13;99.20
76605;BME280;73179;50.978;16.998;2024-02-26T03:12:24;99048.59;;;1.37;99.20
76605;BME280;73179;50.978;16.998;2024-02-26T03:14:51;99016.78;;;1.25;98.82
76605;BME280;73179;50.978;16.998;2024-02-26T03:17:20;99049.31;;;1.27;98.27
76605;BME280;73179;50.978;16.998;2024-02-26T03:19:46;99025.16;;;1.12;98.08
76605;BME280;73179;50.978;16.998;2024-02-26T03:22:13;99029.56;;;1.23;98.75
76605;BME280;73179;50.978;16.998;2024-02-26T03:24:39;99033.81;;;1.24;98.72
76605;BME280;73179;50.978;16.998;2024-02-26T03:27:05;99054.19;;;1.35;98.13
76605;BME280;73179;50.978;16.998;2024-02-26T03:29:38;99060.44;;;1.46;98.17
76605;BME280;73179;50.978;16.998;2024-02-26T03:32:05;99045.53;;;1.50;97.94
76605;BME280;73179;50.978;16.998;2024-02-26T03:34:32;99044.47;;;1.51;97.19
76605;BME280;73179;50.978;16.998;2024-02-26T03:37:02;99062.72;;;1.64;96.79
76605;BME280;73179;50.978;16.998;2024-02-26T03:39:27;99035.41;;;1.52;96.89
76605;BME280;73179;50.978;16.998;2024-02-26T03:41:54;99034.16;;;1.60;97.58
76605;BME280;73179;50.978;16.998;2024-02-26T03:44:26;99056.38;;;1.70;97.35
76605;BME280;73179;50.978;16.998;2024-02-26T03:46:52;99034.59;;;1.52;95.57
76605;BME280;73179;50.978;16.998;2024-02-26T03:49:18;99033.31;;;1.54;95.54
76605;BME280;73179;50.978;16.998;2024-02-26T03:51:44;99038.50;;;1.66;95.67
76605;BME280;73179;50.978;16.998;2024-02-26T03:54:10;99046.97;;;1.63;95.45
76605;BME280;73179;50.978;16.998;2024-02-26T03:56:38;99006.81;;;1.42;94.88
76605;BME280;73179;50.978;16.998;2024-02-26T03:59:04;99029.84;;;1.54;95.18
76605;BME280;73179;50.978;16.998;2024-02-26T04:01:30;99053.41;;;1.67;94.99
76605;BME280;73179;50.978;16.998;2024-02-26T04:03:56;99046.66;;;1.54;93.63
76605;BME280;73179;50.978;16.998;2024-02-26T04:06:23;99030.03;;;1.47;93.88
76605;BME280;73179;50.978;16.998;2024-02-26T04:08:49;99033.47;;;1.42;92.95
76605;BME280;73179;50.978;16.998;2024-02-26T04:11:15;99020.47;;;1.24;93.89
76605;BME280;73179;50.978;16.998;2024-02-26T04:13:44;99021.19;;;0.88;94.60
76605;BME280;73179;50.978;16.998;2024-02-26T04:16:15;99039.78;;;1.10;95.17
76605;BME280;73179;50.978;16.998;2024-02-26T04:18:42;99025.00;;;0.97;95.77
76605;BME280;73179;50.978;16.998;2024-02-26T04:21:08;99054.78;;;0.94;96.51
76605;BME280;73179;50.978;16.998;2024-02-26T04:23:34;99032.38;;;0.90;97.41
76605;BME280;73179;50.978;16.998;2024-02-26T04:26:01;99022.91;;;0.99;97.82
76605;BME280;73179;50.978;16.998;2024-02-26T04:28:27;99046.31;;;1.24;96.73
76605;BME280;73179;50.978;16.998;2024-02-26T04:30:55;99009.56;;;0.99;96.28
76605;BME280;73179;50.978;16.998;2024-02-26T04:33:21;99034.75;;;1.13;96.25
76605;BME280;73179;50.978;16.998;2024-02-26T04:35:47;99046.59;;;1.01;95.59
76605;BME280;73179;50.978;16.998;2024-02-26T04:38:13;99035.38;;;0.72;96.38
76605;BME280;73179;50.978;16.998;2024-02-26T04:40:40;99043.72;;;0.80;96.70
76605;BME280;73179;50.978;16.998;2024-02-26T04:43:06;99047.13;;;0.98;96.98
76605;BME280;73179;50.978;16.998;2024-02-26T04:45:32;99056.78;;;1.04;97.19
76605;BME280;73179;50.978;16.998;2024-02-26T04:47:59;99063.59;;;0.94;97.15
76605;BME280;73179;50.978;16.998;2024-02-26T04:50:25;99047.38;;;0.74;97.97
76605;BME280;73179;50.978;16.998;2024-02-26T04:52:51;99067.31;;;0.72;96.99
76605;BME280;73179;50.978;16.998;2024-02-26T04:55:17;99043.78;;;0.64;97.73
76605;BME280;73179;50.978;16.998;2024-02-26T04:57:43;99058.13;;;0.63;95.91
76605;BME280;73179;50.978;16.998;2024-02-26T05:00:10;99059.69;;;0.59;96.74
76605;BME280;73179;50.978;16.998;2024-02-26T05:02:36;99072.88;;;0.70;96.67
76605;BME280;73179;50.978;16.998;2024-02-26T05:05:05;99072.72;;;0.77;96.98
76605;BME280;73179;50.978;16.998;2024-02-26T05:07:31;99055.59;;;0.51;95.68
76605;BME280;73179;50.978;16.998;2024-02-26T05:09:58;99047.28;;;0.47;97.33
76605;BME280;73179;50.978;16.998;2024-02-26T05:12:24;99054.03;;;0.33;97.86
76605;BME280;73179;50.978;16.998;2024-02-26T05:14:51;99046.34;;;0.37;98.60
76605;BME280;73179;50.978;16.998;2024-02-26T05:17:16;99047.09;;;0.54;98.55
76605;BME280;73179;50.978;16.998;2024-02-26T05:19:43;99034.56;;;0.50;98.94
76605;BME280;73179;50.978;16.998;2024-02-26T05:22:09;99028.41;;;0.49;99.19
76605;BME280;73179;50.978;16.998;2024-02-26T05:24:37;99028.31;;;0.61;97.69
76605;BME280;73179;50.978;16.998;2024-02-26T05:27:04;99056.44;;;0.73;98.47
76605;BME280;73179;50.978;16.998;2024-02-26T05:29:30;99040.63;;;0.67;98.78
76605;BME280;73179;50.978;16.998;2024-02-26T05:31:56;99057.41;;;0.89;99.51
76605;BME280;73179;50.978;16.998;2024-02-26T05:34:23;99061.00;;;1.00;98.73
76605;BME280;73179;50.978;16.998;2024-02-26T05:36:49;99049.03;;;1.02;98.80
76605;BME280;73179;50.978;16.998;2024-02-26T05:39:15;99050.34;;;1.00;98.53
76605;BME280;73179;50.978;16.998;2024-02-26T05:41:41;99045.81;;;1.00;98.42
76605;BME280;73179;50.978;16.998;2024-02-26T05:44:10;99056.97;;;0.97;99.25
76605;BME280;73179;50.978;16.998;2024-02-26T05:46:36;99059.31;;;0.72;99.03
76605;BME280;73179;50.978;16.998;2024-02-26T05:49:03;99061.72;;;0.52;99.03
76605;BME280;73179;50.978;16.998;2024-02-26T05:51:29;99030.16;;;0.38;99.96
76605;BME280;73179;50.978;16.998;2024-02-26T05:54:17;99067.13;;;0.78;100.00
76605;BME280;73179;50.978;16.998;2024-02-26T05:57:13;99061.69;;;0.90;100.00
76605;BME280;73179;50.978;16.998;2024-02-26T06:00:21;99066.66;;;1.30;100.00
76605;BME280;73179;50.978;16.998;2024-02-26T06:03:19;99067.56;;;1.40;100.00
76605;BME280;73179;50.978;16.998;2024-02-26T06:06:32;99068.16;;;1.48;100.00
76605;BME280;73179;50.978;16.998;2024-02-26T06:09:19;99051.47;;;1.57;99.91
76605;BME280;73179;50.978;16.998;2024-02-26T06:11:47;99070.41;;;1.87;99.68
76605;BME280;73179;50.978;16.998;2024-02-26T06:14:13;99075.63;;;2.04;99.06
76605;BME280;73179;50.978;16.998;2024-02-26T06:16:44;99027.50;;;1.94;98.88
76605;BME280;73179;50.978;16.998;2024-02-26T06:19:10;99048.81;;;2.26;98.25
76605;BME280;73179;50.978;16.998;2024-02-26T06:21:36;99058.34;;;2.59;96.95
76605;BME280;73179;50.978;16.998;2024-02-26T06:24:02;99035.47;;;2.78;95.20
76605;BME280;73179;50.978;16.998;2024-02-26T06:26:28;99051.84;;;3.02;93.62
76605;BME280;73179;50.978;16.998;2024-02-26T06:28:55;99021.38;;;3.03;92.25
76605;BME280;73179;50.978;16.998;2024-02-26T06:31:22;99066.63;;;3.29;91.67
76605;BME280;73179;50.978;16.998;2024-02-26T06:33:49;99043.22;;;2.79;91.62
76605;BME280;73179;50.978;16.998;2024-02-26T06:36:18;99061.63;;;2.76;92.55
76605;BME280;73179;50.978;16.998;2024-02-26T06:38:44;99048.44;;;2.54;92.72
76605;BME280;73179;50.978;16.998;2024-02-26T06:41:10;99069.53;;;2.51;93.67
76605;BME280;73179;50.978;16.998;2024-02-26T06:43:37;99049.91;;;2.30;94.52
76605;BME280;73179;50.978;16.998;2024-02-26T06:46:03;99009.94;;;2.03;94.29
76605;BME280;73179;50.978;16.998;2024-02-26T06:48:29;99054.59;;;2.60;93.74
76605;BME280;73179;50.978;16.998;2024-02-26T06:50:55;99082.00;;;2.87;94.09
76605;BME280;73179;50.978;16.998;2024-02-26T06:53:22;99070.50;;;2.86;93.04
76605;BME280;73179;50.978;16.998;2024-02-26T06:55:48;99078.25;;;2.88;93.49
76605;BME280;73179;50.978;16.998;2024-02-26T06:58:22;99043.34;;;2.53;93.60
76605;BME280;73179;50.978;16.998;2024-02-26T07:00:49;99050.47;;;2.37;94.19
76605;BME280;73179;50.978;16.998;2024-02-26T07:03:15;99079.94;;;2.52;94.83
76605;BME280;73179;50.978;16.998;2024-02-26T07:05:41;99099.47;;;2.58;95.04
76605;BME280;73179;50.978;16.998;2024-02-26T07:08:09;99063.66;;;2.54;94.52
76605;BME280;73179;50.978;16.998;2024-02-26T07:10:38;99080.94;;;2.88;94.82
76605;BME280;73179;50.978;16.998;2024-02-26T07:13:04;99087.94;;;3.04;94.58
76605;BME280;73179;50.978;16.998;2024-02-26T07:15:31;99048.31;;;2.86;94.26
76605;BME280;73179;50.978;16.998;2024-02-26T07:17:58;99064.44;;;3.11;94.11
76605;BME280;73179;50.978;16.998;2024-02-26T07:20:31;99095.00;;;3.35;92.84
76605;BME280;73179;50.978;16.998;2024-02-26T07:22:58;99002.38;;;2.94;93.83
76605;BME280;73179;50.978;16.998;2024-02-26T07:25:24;99066.72;;;3.55;93.68
76605;BME280;73179;50.978;16.998;2024-02-26T07:27:50;99054.94;;;3.61;92.34
76605;BME280;73179;50.978;16.998;2024-02-26T07:30:16;99063.53;;;3.93;92.17
76605;BME280;73179;50.978;16.998;2024-02-26T07:32:43;99094.56;;;4.14;91.46
76605;BME280;73179;50.978;16.998;2024-02-26T07:35:08;99093.75;;;4.34;91.91
76605;BME280;73179;50.978;16.998;2024-02-26T07:37:35;99081.97;;;4.25;90.76
76605;BME280;73179;50.978;16.998;2024-02-26T07:40:07;99068.56;;;4.30;90.75
76605;BME280;73179;50.978;16.998;2024-02-26T07:42:37;99047.94;;;4.46;90.92
76605;BME280;73179;50.978;16.998;2024-02-26T07:45:05;99111.09;;;4.72;90.72
76605;BME280;73179;50.978;16.998;2024-02-26T07:47:31;99053.25;;;4.56;91.54
76605;BME280;73179;50.978;16.998;2024-02-26T07:50:00;99112.13;;;4.91;90.40
76605;BME280;73179;50.978;16.998;2024-02-26T07:52:26;98977.03;;;4.13;90.11
76605;BME280;73179;50.978;16.998;2024-02-26T07:54:52;98971.91;;;4.26;89.91
76605;BME280;73179;50.978;16.998;2024-02-26T07:57:19;99037.66;;;4.68;90.04
76605;BME280;73179;50.978;16.998;2024-02-26T07:59:50;99107.84;;;5.49;90.25
76605;BME280;73179;50.978;16.998;2024-02-26T08:02:18;99051.03;;;5.37;89.18
76605;BME280;73179;50.978;16.998;2024-02-26T08:04:44;99111.03;;;6.05;88.25
76605;BME280;73179;50.978;16.998;2024-02-26T08:07:10;99043.16;;;5.56;88.02
76605;BME280;73179;50.978;16.998;2024-02-26T08:09:36;98987.38;;;5.48;87.64
76605;BME280;73179;50.978;16.998;2024-02-26T08:12:03;99012.94;;;5.74;85.88
76605;BME280;73179;50.978;16.998;2024-02-26T08:14:29;99041.66;;;6.12;85.63
76605;BME280;73179;50.978;16.998;2024-02-26T08:17:06;98966.41;;;5.89;85.26
76605;BME280;73179;50.978;16.998;2024-02-26T08:19:34;99082.53;;;6.91;85.86
76605;BME280;73179;50.978;16.998;2024-02-26T08:22:02;99096.84;;;7.10;85.31
76605;BME280;73179;50.978;16.998;2024-02-26T08:24:28;99064.78;;;7.13;83.84
76605;BME280;73179;50.978;16.998;2024-02-26T08:26:55;99017.41;;;7.12;83.86
76605;BME280;73179;50.978;16.998;2024-02-26T08:29:22;99067.66;;;7.41;82.51
76605;BME280;73179;50.978;16.998;2024-02-26T08:31:52;99090.94;;;7.69;83.32
76605;BME280;73179;50.978;16.998;2024-02-26T08:34:19;99041.81;;;7.58;83.27
76605;BME280;73179;50.978;16.998;2024-02-26T08:36:48;99026.28;;;7.69;81.60
76605;BME280;73179;50.978;16.998;2024-02-26T08:39:17;99068.09;;;8.18;82.03
76605;BME280;73179;50.978;16.998;2024-02-26T08:41:44;99068.22;;;8.26;80.83
76605;BME280;73179;50.978;16.998;2024-02-26T08:44:11;99079.25;;;8.43;81.08
76605;BME280;73179;50.978;16.998;2024-02-26T08:46:39;99101.38;;;8.59;80.24
76605;BME280;73179;50.978;16.998;2024-02-26T08:49:05;98939.06;;;7.51;80.54
76605;BME280;73179;50.978;16.998;2024-02-26T08:51:35;99015.69;;;8.24;80.10
76605;BME280;73179;50.978;16.998;2024-02-26T08:54:01;99092.41;;;9.04;79.77
76605;BME280;73179;50.978;16.998;2024-02-26T08:56:40;98968.31;;;8.36;78.33
76605;BME280;73179;50.978;16.998;2024-02-26T08:59:06;98981.69;;;8.41;77.13
76605;BME280;73179;50.978;16.998;2024-02-26T09:01:37;98943.63;;;8.29;78.03
76605;BME280;73179;50.978;16.998;2024-02-26T09:04:04;99039.84;;;9.02;77.85
76605;BME280;73179;50.978;16.998;2024-02-26T09:06:34;99026.34;;;8.88;76.21
76605;BME280;73179;50.978;16.998;2024-02-26T09:09:01;99027.13;;;8.89;76.64
76605;BME280;73179;50.978;16.998;2024-02-26T09:11:32;99072.00;;;9.12;78.34
76605;BME280;73179;50.978;16.998;2024-02-26T09:13:58;99037.44;;;9.14;78.81
76605;BME280;73179;50.978;16.998;2024-02-26T09:16:25;99044.13;;;9.17;78.12
76605;BME280;73179;50.978;16.998;2024-02-26T09:18:52;98998.97;;;8.95;76.63
76605;BME280;73179;50.978;16.998;2024-02-26T09:21:22;99037.44;;;9.14;75.86
76605;BME280;73179;50.978;16.998;2024-02-26T09:23:52;99048.72;;;9.30;75.00
76605;BME280;73179;50.978;16.998;2024-02-26T09:26:20;99085.25;;;9.63;74.99
76605;BME280;73179;50.978;16.998;2024-02-26T09:28:47;99047.28;;;9.46;76.73
76605;BME280;73179;50.978;16.998;2024-02-26T09:31:17;99081.50;;;9.37;75.06
76605;BME280;73179;50.978;16.998;2024-02-26T09:33:45;99067.72;;;9.25;76.75
76605;BME280;73179;50.978;16.998;2024-02-26T09:36:27;99063.28;;;9.42;77.12
76605;BME280;73179;50.978;16.998;2024-02-26T09:38:54;99045.59;;;9.36;77.02
76605;BME280;73179;50.978;16.998;2024-02-26T09:41:20;99007.59;;;9.19;76.11
76605;BME280;73179;50.978;16.998;2024-02-26T09:43:56;98990.75;;;9.00;77.48
76605;BME280;73179;50.978;16.998;2024-02-26T09:46:25;99090.16;;;9.61;73.58
76605;BME280;73179;50.978;16.998;2024-02-26T09:48:53;98957.88;;;8.98;74.89
76605;BME280;73179;50.978;16.998;2024-02-26T09:51:22;99059.28;;;9.40;73.36
76605;BME280;73179;50.978;16.998;2024-02-26T09:53:52;98986.75;;;9.11;75.72
76605;BME280;73179;50.978;16.998;2024-02-26T09:56:21;99078.41;;;9.79;75.91
76605;BME280;73179;50.978;16.998;2024-02-26T09:58:58;99096.81;;;9.77;74.40
76605;BME280;73179;50.978;16.998;2024-02-26T10:01:59;98963.75;;;9.14;74.29
76605;BME280;73179;50.978;16.998;2024-02-26T10:04:28;98977.16;;;9.41;73.71
76605;BME280;73179;50.978;16.998;2024-02-26T10:06:59;99107.09;;;10.25;74.34
76605;BME280;73179;50.978;16.998;2024-02-26T10:09:40;99103.19;;;10.39;74.43
76605;BME280;73179;50.978;16.998;2024-02-26T10:12:10;99077.66;;;10.23;74.80
76605;BME280;73179;50.978;16.998;2024-02-26T10:14:40;99054.31;;;10.36;73.44
76605;BME280;73179;50.978;16.998;2024-02-26T10:17:07;99053.41;;;10.40;71.40
76605;BME280;73179;50.978;16.998;2024-02-26T10:19:36;98932.06;;;9.94;73.55
76605;BME280;73179;50.978;16.998;2024-02-26T10:22:02;99076.16;;;10.70;71.66
76605;BME280;73179;50.978;16.998;2024-02-26T10:24:31;99040.69;;;10.41;69.59
76605;BME280;73179;50.978;16.998;2024-02-26T10:26:57;99024.91;;;10.43;71.32
76605;BME280;73179;50.978;16.998;2024-02-26T10:29:25;99075.16;;;10.58;70.99
76605;BME280;73179;50.978;16.998;2024-02-26T10:31:52;99100.81;;;10.99;71.65
76605;BME280;73179;50.978;16.998;2024-02-26T10:34:19;99061.34;;;10.68;71.06
76605;BME280;73179;50.978;16.998;2024-02-26T10:36:45;99050.22;;;10.69;72.40
76605;BME280;73179;50.978;16.998;2024-02-26T10:39:16;99058.50;;;10.73;70.49
76605;BME280;73179;50.978;16.998;2024-02-26T10:41:44;99047.69;;;10.81;73.20
76605;BME280;73179;50.978;16.998;2024-02-26T10:44:13;99029.88;;;10.80;71.92
76605;BME280;73179;50.978;16.998;2024-02-26T10:46:42;99057.91;;;10.84;67.32
76605;BME280;73179;50.978;16.998;2024-02-26T10:49:16;99088.00;;;11.22;69.96
76605;BME280;73179;50.978;16.998;2024-02-26T10:51:52;99053.16;;;10.90;68.99
76605;BME280;73179;50.978;16.998;2024-02-26T10:54:25;98869.03;;;9.85;68.88
76605;BME280;73179;50.978;16.998;2024-02-26T10:56:56;99074.16;;;11.41;69.37
76605;BME280;73179;50.978;16.998;2024-02-26T10:59:26;98976.69;;;10.84;67.87
76605;BME280;73179;50.978;16.998;2024-02-26T11:01:54;99044.81;;;11.43;68.69
76605;BME280;73179;50.978;16.998;2024-02-26T11:04:22;98965.09;;;10.92;69.37
76605;BME280;73179;50.978;16.998;2024-02-26T11:06:49;98989.31;;;11.06;68.17
76605;BME280;73179;50.978;16.998;2024-02-26T11:09:18;99021.41;;;11.38;69.22
76605;BME280;73179;50.978;16.998;2024-02-26T11:11:47;99027.47;;;11.53;66.35
76605;BME280;73179;50.978;16.998;2024-02-26T11:14:15;99013.56;;;11.28;67.17
76605;BME280;73179;50.978;16.998;2024-02-26T11:16:43;99043.56;;;11.66;66.28
76605;BME280;73179;50.978;16.998;2024-02-26T11:19:12;98973.59;;;11.42;69.45
76605;BME280;73179;50.978;16.998;2024-02-26T11:21:40;99006.59;;;11.44;68.59
76605;BME280;73179;50.978;16.998;2024-02-26T11:24:13;98977.91;;;11.35;68.69
76605;BME280;73179;50.978;16.998;2024-02-26T11:26:46;99023.00;;;11.57;66.02
76605;BME280;73179;50.978;16.998;2024-02-26T11:29:21;98991.75;;;11.33;65.80
76605;BME280;73179;50.978;16.998;2024-02-26T11:31:48;98926.91;;;11.20;69.06
76605;BME280;73179;50.978;16.998;2024-02-26T11:34:16;98928.31;;;11.09;65.79
76605;BME280;73179;50.978;16.998;2024-02-26T11:36:43;98990.31;;;11.53;67.11
76605;BME280;73179;50.978;16.998;2024-02-26T11:39:12;98974.22;;;11.39;66.12
76605;BME280;73179;50.978;16.998;2024-02-26T11:41:39;99032.75;;;11.75;64.15
76605;BME280;73179;50.978;16.998;2024-02-26T11:44:13;99012.16;;;11.57;65.75
76605;BME280;73179;50.978;16.998;2024-02-26T11:46:42;99008.66;;;11.65;67.49
76605;BME280;73179;50.978;16.998;2024-02-26T11:51:55;99038.19;;;11.92;64.94
76605;BME280;73179;50.978;16.998;2024-02-26T11:54:47;98982.03;;;11.58;66.17
76605;BME280;73179;50.978;16.998;2024-02-26T11:57:27;98998.78;;;11.69;65.32
76605;BME280;73179;50.978;16.998;2024-02-26T11:59:56;99029.25;;;11.83;65.82
76605;BME280;73179;50.978;16.998;2024-02-26T12:05:21;98950.31;;;11.41;67.05
76605;BME280;73179;50.978;16.998;2024-02-26T12:07:59;98921.97;;;11.30;65.34
76605;BME280;73179;50.978;16.998;2024-02-26T12:10:30;99043.72;;;12.21;66.90
76605;BME280;73179;50.978;16.998;2024-02-26T12:13:08;98990.53;;;11.74;64.97
76605;BME280;73179;50.978;16.998;2024-02-26T12:15:40;99035.78;;;12.08;65.83
76605;BME280;73179;50.978;16.998;2024-02-26T12:18:08;98950.63;;;11.57;66.71
76605;BME280;73179;50.978;16.998;2024-02-26T12:20:39;99033.38;;;11.98;64.02
76605;BME280;73179;50.978;16.998;2024-02-26T12:23:05;99000.06;;;11.88;64.11
76605;BME280;73179;50.978;16.998;2024-02-26T12:25:34;98912.72;;;11.31;65.01
76605;BME280;73179;50.978;16.998;2024-02-26T12:28:00;99010.56;;;11.90;65.74
76605;BME280;73179;50.978;16.998;2024-02-26T12:30:27;98977.09;;;11.60;63.62
76605;BME280;73179;50.978;16.998;2024-02-26T12:32:56;98907.28;;;11.23;63.48
76605;BME280;73179;50.978;16.998;2024-02-26T12:35:27;98936.94;;;11.54;64.55
76605;BME280;73179;50.978;16.998;2024-02-26T12:37:54;98982.03;;;11.92;66.26
76605;BME280;73179;50.978;16.998;2024-02-26T12:40:21;98945.81;;;11.63;64.14
76605;BME280;73179;50.978;16.998;2024-02-26T12:42:47;98981.09;;;11.71;63.80
76605;BME280;73179;50.978;16.998;2024-02-26T12:45:15;99006.28;;;11.80;62.85
76605;BME280;73179;50.978;16.998;2024-02-26T12:47:43;98911.56;;;11.24;65.93
76605;BME280;73179;50.978;16.998;2024-02-26T12:54:20;99041.34;;;12.20;65.19
76605;BME280;73179;50.978;16.998;2024-02-26T12:56:56;99049.00;;;12.26;65.54
76605;BME280;73179;50.978;16.998;2024-02-26T12:59:23;98853.63;;;11.08;67.00
76605;BME280;73179;50.978;16.998;2024-02-26T13:01:50;98919.56;;;11.46;64.91
76605;BME280;73179;50.978;16.998;2024-02-26T13:04:17;99006.25;;;12.06;66.37
76605;BME280;73179;50.978;16.998;2024-02-26T13:06:47;98935.81;;;11.72;65.04
76605;BME280;73179;50.978;16.998;2024-02-26T13:09:14;99033.97;;;12.37;64.34
76605;BME280;73179;50.978;16.998;2024-02-26T13:11:41;98960.19;;;11.89;65.22
76605;BME280;73179;50.978;16.998;2024-02-26T13:14:07;98939.00;;;11.65;64.15